sensor_id;sensor_type;location;lat;lon;timestamp;temperature;humidity
41310;DHT22;27057;51.438;-0.010;2023-04-03T00:00:56;6.00;99.90
41310;DHT22;27057;51.438;-0.010;2023-04-03T00:03:24;5.90;99.90
41310;DHT22;27057;51.438;-0.010;2023-04-03T00:05:52;5.90;99.90
41310;DHT22;27057;51.438;-0.010;2023-04-03T00:08:19;6.40;99.90
41310;DHT22;27057;51.438;-0.010;2023-04-03T00:10:47;6.10;99.90
41310;DHT22;27057;51.438;-0.010;2023-04-03T00:13:14;5.60;99.90
41310;DHT22;27057;51.438;-0.010;2023-04-03T00:15:42;5.80;99.90
41310;DHT22;27057;51.438;-0.010;2023-04-03T00:18:10;5.80;99.90
41310;DHT22;27057;51.438;-0.010;2023-04-03T00:20:38;5.60;99.90
41310;DHT22;27057;51.438;-0.010;2023-04-03T00:28:02;5.70;99.90
41310;DHT22;27057;51.438;-0.010;2023-04-03T00:32:58;5.70;99.90
41310;DHT22;27057;51.438;-0.010;2023-04-03T00:35:25;5.70;99.90
41310;DHT22;27057;51.438;-0.010;2023-04-03T00:37:54;6.40;99.90
41310;DHT22;27057;51.438;-0.010;2023-04-03T00:40:24;5.40;99.90
41310;DHT22;27057;51.438;-0.010;2023-04-03T00:42:59;5.80;99.90
41310;DHT22;27057;51.438;-0.010;2023-04-03T00:45:36;5.60;99.90
41310;DHT22;27057;51.438;-0.010;2023-04-03T00:48:07;5.40;99.90
41310;DHT22;27057;51.438;-0.010;2023-04-03T00:50:39;5.70;99.90
41310;DHT22;27057;51.438;-0.010;2023-04-03T00:53:10;5.50;99.90
41310;DHT22;27057;51.438;-0.010;2023-04-03T00:55:39;5.30;99.90
41310;DHT22;27057;51.438;-0.010;2023-04-03T00:58:07;5.30;99.90
41310;DHT22;27057;51.438;-0.010;2023-04-03T01:00:38;5.30;99.90
41310;DHT22;27057;51.438;-0.010;2023-04-03T01:03:05;5.20;99.90
41310;DHT22;27057;51.438;-0.010;2023-04-03T01:08:02;5.30;99.90
41310;DHT22;27057;51.438;-0.010;2023-04-03T01:10:30;5.20;99.90
41310;DHT22;27057;51.438;-0.010;2023-04-03T01:12:59;5.10;99.90
41310;DHT22;27057;51.438;-0.010;2023-04-03T01:15:28;5.40;99.90
41310;DHT22;27057;51.438;-0.010;2023-04-03T01:25:48;5.40;99.90
41310;DHT22;27057;51.438;-0.010;2023-04-03T01:28:26;5.20;99.90
41310;DHT22;27057;51.438;-0.010;2023-04-03T01:33:47;5.00;99.90
41310;DHT22;27057;51.438;-0.010;2023-04-03T01:36:20;5.00;99.90
41310;DHT22;27057;51.438;-0.010;2023-04-03T01:41:16;5.00;99.90
41310;DHT22;27057;51.438;-0.010;2023-04-03T01:43:45;4.80;99.90
41310;DHT22;27057;51.438;-0.010;2023-04-03T01:46:13;4.80;99.90
41310;DHT22;27057;51.438;-0.010;2023-04-03T01:48:42;4.90;99.90
41310;DHT22;27057;51.438;-0.010;2023-04-03T01:51:10;4.90;99.90
41310;DHT22;27057;51.438;-0.010;2023-04-03T01:53:37;4.90;99.90
41310;DHT22;27057;51.438;-0.010;2023-04-03T01:56:05;4.80;99.90
41310;DHT22;27057;51.438;-0.010;2023-04-03T01:58:33;4.80;99.90
41310;DHT22;27057;51.438;-0.010;2023-04-03T02:01:00;5.30;99.90
41310;DHT22;27057;51.438;-0.010;2023-04-03T02:03:29;4.80;99.90
41310;DHT22;27057;51.438;-0.010;2023-04-03T02:05:58;5.00;99.90
41310;DHT22;27057;51.438;-0.010;2023-04-03T02:08:26;5.10;99.90
41310;DHT22;27057;51.438;-0.010;2023-04-03T02:15:49;4.70;99.90
41310;DHT22;27057;51.438;-0.010;2023-04-03T02:18:16;4.50;99.90
41310;DHT22;27057;51.438;-0.010;2023-04-03T02:20:44;4.50;99.90
41310;DHT22;27057;51.438;-0.010;2023-04-03T02:23:13;4.80;99.90
41310;DHT22;27057;51.438;-0.010;2023-04-03T02:25:40;5.00;99.90
41310;DHT22;27057;51.438;-0.010;2023-04-03T02:28:07;4.80;99.90
41310;DHT22;27057;51.438;-0.010;2023-04-03T02:30:35;4.60;99.90
41310;DHT22;27057;51.438;-0.010;2023-04-03T02:33:04;4.30;99.90
41310;DHT22;27057;51.438;-0.010;2023-04-03T02:35:31;4.50;99.90
41310;DHT22;27057;51.438;-0.010;2023-04-03T02:37:59;4.60;99.90
41310;DHT22;27057;51.438;-0.010;2023-04-03T02:40:26;4.70;99.90
41310;DHT22;27057;51.438;-0.010;2023-04-03T02:42:54;4.40;99.90
41310;DHT22;27057;51.438;-0.010;2023-04-03T02:45:23;4.30;99.90
41310;DHT22;27057;51.438;-0.010;2023-04-03T02:47:51;5.60;99.90
41310;DHT22;27057;51.438;-0.010;2023-04-03T02:50:18;4.50;99.90
41310;DHT22;27057;51.438;-0.010;2023-04-03T02:55:14;4.20;99.90
41310;DHT22;27057;51.438;-0.010;2023-04-03T03:00:13;4.20;99.90
41310;DHT22;27057;51.438;-0.010;2023-04-03T03:02:41;4.30;99.90
41310;DHT22;27057;51.438;-0.010;2023-04-03T03:05:09;4.10;99.90
41310;DHT22;27057;51.438;-0.010;2023-04-03T03:07:36;4.20;99.90
41310;DHT22;27057;51.438;-0.010;2023-04-03T03:10:04;4.60;99.90
41310;DHT22;27057;51.438;-0.010;2023-04-03T03:12:31;4.00;99.90
41310;DHT22;27057;51.438;-0.010;2023-04-03T03:15:00;4.00;99.90
41310;DHT22;27057;51.438;-0.010;2023-04-03T03:19:55;4.00;99.90
41310;DHT22;27057;51.438;-0.010;2023-04-03T03:22:23;4.20;99.90
41310;DHT22;27057;51.438;-0.010;2023-04-03T03:24:50;3.90;99.90
41310;DHT22;27057;51.438;-0.010;2023-04-03T03:27:17;3.90;99.90
41310;DHT22;27057;51.438;-0.010;2023-04-03T03:29:45;4.10;99.90
41310;DHT22;27057;51.438;-0.010;2023-04-03T03:32:13;3.60;99.90
41310;DHT22;27057;51.438;-0.010;2023-04-03T03:34:40;3.80;99.90
41310;DHT22;27057;51.438;-0.010;2023-04-03T03:37:08;3.90;99.90
41310;DHT22;27057;51.438;-0.010;2023-04-03T03:39:36;3.60;99.90
41310;DHT22;27057;51.438;-0.010;2023-04-03T03:42:03;3.70;99.90
41310;DHT22;27057;51.438;-0.010;2023-04-03T03:44:31;3.70;99.90
41310;DHT22;27057;51.438;-0.010;2023-04-03T03:46:58;4.80;99.90
41310;DHT22;27057;51.438;-0.010;2023-04-03T03:49:28;3.70;99.90
41310;DHT22;27057;51.438;-0.010;2023-04-03T03:54:24;3.70;99.90
41310;DHT22;27057;51.438;-0.010;2023-04-03T03:56:51;4.90;99.90
41310;DHT22;27057;51.438;-0.010;2023-04-03T03:59:19;3.70;99.90
41310;DHT22;27057;51.438;-0.010;2023-04-03T04:01:50;4.50;99.90
41310;DHT22;27057;51.438;-0.010;2023-04-03T04:04:18;3.80;99.90
41310;DHT22;27057;51.438;-0.010;2023-04-03T04:06:46;3.60;99.90
41310;DHT22;27057;51.438;-0.010;2023-04-03T04:09:13;3.70;99.90
41310;DHT22;27057;51.438;-0.010;2023-04-03T04:11:41;3.70;99.90
41310;DHT22;27057;51.438;-0.010;2023-04-03T04:16:42;3.80;99.90
41310;DHT22;27057;51.438;-0.010;2023-04-03T04:19:15;3.80;99.90
41310;DHT22;27057;51.438;-0.010;2023-04-03T04:21:44;4.00;99.90
41310;DHT22;27057;51.438;-0.010;2023-04-03T04:24:12;4.00;99.90
41310;DHT22;27057;51.438;-0.010;2023-04-03T04:26:40;5.60;99.90
41310;DHT22;27057;51.438;-0.010;2023-04-03T04:29:11;3.80;99.90
41310;DHT22;27057;51.438;-0.010;2023-04-03T04:31:38;4.20;99.90
41310;DHT22;27057;51.438;-0.010;2023-04-03T04:34:07;4.10;99.90
41310;DHT22;27057;51.438;-0.010;2023-04-03T04:36:36;4.00;99.90
41310;DHT22;27057;51.438;-0.010;2023-04-03T04:39:04;4.10;99.90
41310;DHT22;27057;51.438;-0.010;2023-04-03T04:41:32;3.90;99.90
41310;DHT22;27057;51.438;-0.010;2023-04-03T04:44:00;4.00;99.90
41310;DHT22;27057;51.438;-0.010;2023-04-03T04:51:28;4.00;99.90
41310;DHT22;27057;51.438;-0.010;2023-04-03T04:54:08;4.00;99.90
41310;DHT22;27057;51.438;-0.010;2023-04-03T04:56:36;4.20;99.90
41310;DHT22;27057;51.438;-0.010;2023-04-03T04:59:04;4.10;99.90
41310;DHT22;27057;51.438;-0.010;2023-04-03T05:01:32;4.20;99.90
41310;DHT22;27057;51.438;-0.010;2023-04-03T05:04:06;4.10;99.90
41310;DHT22;27057;51.438;-0.010;2023-04-03T05:09:06;4.20;99.90
41310;DHT22;27057;51.438;-0.010;2023-04-03T05:11:34;4.20;99.90
41310;DHT22;27057;51.438;-0.010;2023-04-03T05:14:01;4.20;99.90
41310;DHT22;27057;51.438;-0.010;2023-04-03T05:16:29;4.50;99.90
41310;DHT22;27057;51.438;-0.010;2023-04-03T05:18:57;5.70;99.90
41310;DHT22;27057;51.438;-0.010;2023-04-03T05:21:25;5.20;99.90
41310;DHT22;27057;51.438;-0.010;2023-04-03T05:28:50;4.50;99.90
41310;DHT22;27057;51.438;-0.010;2023-04-03T05:33:47;4.70;99.90
41310;DHT22;27057;51.438;-0.010;2023-04-03T05:36:17;4.50;99.90
41310;DHT22;27057;51.438;-0.010;2023-04-03T05:41:18;3.40;99.90
41310;DHT22;27057;51.438;-0.010;2023-04-03T05:43:48;4.50;99.90
41310;DHT22;27057;51.438;-0.010;2023-04-03T05:46:18;4.90;99.90
41310;DHT22;27057;51.438;-0.010;2023-04-03T05:48:51;6.20;99.90
41310;DHT22;27057;51.438;-0.010;2023-04-03T05:51:24;6.00;99.90
41310;DHT22;27057;51.438;-0.010;2023-04-03T05:54:17;3.30;99.90
41310;DHT22;27057;51.438;-0.010;2023-04-03T05:56:46;4.80;99.90
41310;DHT22;27057;51.438;-0.010;2023-04-03T05:59:13;4.80;99.90
41310;DHT22;27057;51.438;-0.010;2023-04-03T06:01:41;4.80;99.90
41310;DHT22;27057;51.438;-0.010;2023-04-03T06:04:09;5.20;99.90
41310;DHT22;27057;51.438;-0.010;2023-04-03T06:06:48;5.20;99.90
41310;DHT22;27057;51.438;-0.010;2023-04-03T06:09:17;5.50;99.90
41310;DHT22;27057;51.438;-0.010;2023-04-03T06:11:45;5.20;99.90
41310;DHT22;27057;51.438;-0.010;2023-04-03T06:14:13;5.80;99.90
41310;DHT22;27057;51.438;-0.010;2023-04-03T06:16:40;5.00;99.90
41310;DHT22;27057;51.438;-0.010;2023-04-03T06:19:08;5.20;99.90
41310;DHT22;27057;51.438;-0.010;2023-04-03T06:21:39;5.40;99.90
41310;DHT22;27057;51.438;-0.010;2023-04-03T06:24:13;5.80;99.90
41310;DHT22;27057;51.438;-0.010;2023-04-03T06:26:42;5.20;99.90
41310;DHT22;27057;51.438;-0.010;2023-04-03T06:29:09;5.50;99.90
41310;DHT22;27057;51.438;-0.010;2023-04-03T06:31:37;5.90;99.90
41310;DHT22;27057;51.438;-0.010;2023-04-03T06:34:05;5.70;99.90
41310;DHT22;27057;51.438;-0.010;2023-04-03T06:36:36;5.80;99.90
41310;DHT22;27057;51.438;-0.010;2023-04-03T06:39:03;5.70;99.90
41310;DHT22;27057;51.438;-0.010;2023-04-03T06:41:31;5.80;99.90
41310;DHT22;27057;51.438;-0.010;2023-04-03T06:46:26;5.90;99.90
41310;DHT22;27057;51.438;-0.010;2023-04-03T06:48:54;5.90;99.90
41310;DHT22;27057;51.438;-0.010;2023-04-03T06:51:27;5.90;99.90
41310;DHT22;27057;51.438;-0.010;2023-04-03T06:53:57;6.10;99.90
41310;DHT22;27057;51.438;-0.010;2023-04-03T06:56:25;6.10;99.90
41310;DHT22;27057;51.438;-0.010;2023-04-03T06:58:54;6.00;99.90
41310;DHT22;27057;51.438;-0.010;2023-04-03T07:01:26;6.20;99.90
41310;DHT22;27057;51.438;-0.010;2023-04-03T07:03:55;7.30;99.90
41310;DHT22;27057;51.438;-0.010;2023-04-03T07:06:23;7.90;99.90
41310;DHT22;27057;51.438;-0.010;2023-04-03T07:08:54;6.30;99.90
41310;DHT22;27057;51.438;-0.010;2023-04-03T07:11:22;6.60;99.90
41310;DHT22;27057;51.438;-0.010;2023-04-03T07:13:50;7.80;99.90
41310;DHT22;27057;51.438;-0.010;2023-04-03T07:16:18;6.70;99.90
41310;DHT22;27057;51.438;-0.010;2023-04-03T07:18:46;6.90;99.90
41310;DHT22;27057;51.438;-0.010;2023-04-03T07:21:13;7.70;99.90
41310;DHT22;27057;51.438;-0.010;2023-04-03T07:26:09;6.60;99.90
41310;DHT22;27057;51.438;-0.010;2023-04-03T07:28:36;6.50;99.90
41310;DHT22;27057;51.438;-0.010;2023-04-03T07:31:06;6.40;99.90
41310;DHT22;27057;51.438;-0.010;2023-04-03T07:33:36;7.20;99.90
41310;DHT22;27057;51.438;-0.010;2023-04-03T07:36:05;6.50;99.90
41310;DHT22;27057;51.438;-0.010;2023-04-03T07:38:35;6.80;99.90
41310;DHT22;27057;51.438;-0.010;2023-04-03T07:41:03;6.80;99.90
41310;DHT22;27057;51.438;-0.010;2023-04-03T07:43:31;6.70;99.90
41310;DHT22;27057;51.438;-0.010;2023-04-03T07:45:59;6.80;99.90
41310;DHT22;27057;51.438;-0.010;2023-04-03T07:48:26;7.10;99.90
41310;DHT22;27057;51.438;-0.010;2023-04-03T07:55:49;7.50;99.90
41310;DHT22;27057;51.438;-0.010;2023-04-03T07:58:18;8.20;99.90
41310;DHT22;27057;51.438;-0.010;2023-04-03T08:00:46;7.50;99.90
41310;DHT22;27057;51.438;-0.010;2023-04-03T08:03:14;7.70;99.90
41310;DHT22;27057;51.438;-0.010;2023-04-03T08:05:46;7.80;99.90
41310;DHT22;27057;51.438;-0.010;2023-04-03T08:08:17;7.60;99.90
41310;DHT22;27057;51.438;-0.010;2023-04-03T08:10:53;7.50;99.90
41310;DHT22;27057;51.438;-0.010;2023-04-03T08:13:21;7.40;99.90
41310;DHT22;27057;51.438;-0.010;2023-04-03T08:15:49;7.90;99.90
41310;DHT22;27057;51.438;-0.010;2023-04-03T08:18:18;8.10;99.90
41310;DHT22;27057;51.438;-0.010;2023-04-03T08:20:48;7.60;99.90
41310;DHT22;27057;51.438;-0.010;2023-04-03T08:25:46;7.70;99.90
41310;DHT22;27057;51.438;-0.010;2023-04-03T08:30:42;7.70;99.90
41310;DHT22;27057;51.438;-0.010;2023-04-03T08:33:10;7.70;99.90
41310;DHT22;27057;51.438;-0.010;2023-04-03T08:35:39;7.70;99.90
41310;DHT22;27057;51.438;-0.010;2023-04-03T08:40:36;7.90;99.90
41310;DHT22;27057;51.438;-0.010;2023-04-03T08:46:05;8.30;99.90
41310;DHT22;27057;51.438;-0.010;2023-04-03T08:48:36;8.70;99.90
41310;DHT22;27057;51.438;-0.010;2023-04-03T08:51:15;8.30;99.90
41310;DHT22;27057;51.438;-0.010;2023-04-03T08:54:24;9.10;99.90
41310;DHT22;27057;51.438;-0.010;2023-04-03T08:56:42;8.40;99.90
41310;DHT22;27057;51.438;-0.010;2023-04-03T08:59:28;8.70;99.90
41310;DHT22;27057;51.438;-0.010;2023-04-03T09:02:01;8.60;99.90
41310;DHT22;27057;51.438;-0.010;2023-04-03T09:04:32;8.90;99.90
41310;DHT22;27057;51.438;-0.010;2023-04-03T09:07:13;8.70;99.90
41310;DHT22;27057;51.438;-0.010;2023-04-03T09:09:44;9.20;99.90
41310;DHT22;27057;51.438;-0.010;2023-04-03T09:12:24;9.00;99.90
41310;DHT22;27057;51.438;-0.010;2023-04-03T09:22:47;9.50;99.90
41310;DHT22;27057;51.438;-0.010;2023-04-03T09:25:34;9.70;99.90
41310;DHT22;27057;51.438;-0.010;2023-04-03T09:28:05;9.70;99.90
41310;DHT22;27057;51.438;-0.010;2023-04-03T09:30:37;9.80;99.90
41310;DHT22;27057;51.438;-0.010;2023-04-03T09:33:11;10.00;99.90
41310;DHT22;27057;51.438;-0.010;2023-04-03T09:35:41;10.00;99.90
41310;DHT22;27057;51.438;-0.010;2023-04-03T09:38:22;10.20;99.90
41310;DHT22;27057;51.438;-0.010;2023-04-03T09:41:13;10.40;99.90
41310;DHT22;27057;51.438;-0.010;2023-04-03T09:43:53;10.30;99.90
41310;DHT22;27057;51.438;-0.010;2023-04-03T09:46:25;10.50;99.90
41310;DHT22;27057;51.438;-0.010;2023-04-03T09:49:36;10.60;99.90
41310;DHT22;27057;51.438;-0.010;2023-04-03T09:52:25;10.60;99.90
41310;DHT22;27057;51.438;-0.010;2023-04-03T09:55:07;10.70;99.90
41310;DHT22;27057;51.438;-0.010;2023-04-03T09:57:35;10.80;99.90
41310;DHT22;27057;51.438;-0.010;2023-04-03T10:00:04;10.70;99.90
41310;DHT22;27057;51.438;-0.010;2023-04-03T10:05:26;10.70;99.90
41310;DHT22;27057;51.438;-0.010;2023-04-03T10:07:52;10.90;99.90
41310;DHT22;27057;51.438;-0.010;2023-04-03T10:10:36;11.30;99.90
41310;DHT22;27057;51.438;-0.010;2023-04-03T10:13:09;10.90;99.90
41310;DHT22;27057;51.438;-0.010;2023-04-03T10:15:55;10.90;99.90
41310;DHT22;27057;51.438;-0.010;2023-04-03T10:18:47;10.90;99.90
41310;DHT22;27057;51.438;-0.010;2023-04-03T10:24:32;11.00;99.90
41310;DHT22;27057;51.438;-0.010;2023-04-03T10:27:18;10.80;99.90
41310;DHT22;27057;51.438;-0.010;2023-04-03T10:32:36;10.80;99.90
41310;DHT22;27057;51.438;-0.010;2023-04-03T10:35:37;10.80;99.90
41310;DHT22;27057;51.438;-0.010;2023-04-03T10:41:12;10.80;99.90
41310;DHT22;27057;51.438;-0.010;2023-04-03T10:43:50;11.30;99.90
41310;DHT22;27057;51.438;-0.010;2023-04-03T10:51:46;11.10;99.90
41310;DHT22;27057;51.438;-0.010;2023-04-03T10:54:24;11.20;99.90
41310;DHT22;27057;51.438;-0.010;2023-04-03T10:56:56;11.30;99.90
41310;DHT22;27057;51.438;-0.010;2023-04-03T10:59:59;11.70;99.90
41310;DHT22;27057;51.438;-0.010;2023-04-03T11:02:36;11.50;99.90
41310;DHT22;27057;51.438;-0.010;2023-04-03T11:05:52;11.80;99.90
41310;DHT22;27057;51.438;-0.010;2023-04-03T11:20:32;12.40;99.90
41310;DHT22;27057;51.438;-0.010;2023-04-03T11:27:11;11.90;99.90
41310;DHT22;27057;51.438;-0.010;2023-04-03T11:29:48;12.00;99.90
41310;DHT22;27057;51.438;-0.010;2023-04-03T11:37:00;12.30;99.90
41310;DHT22;27057;51.438;-0.010;2023-04-03T11:53:49;13.50;99.90
41310;DHT22;27057;51.438;-0.010;2023-04-03T11:56:32;13.70;99.90
41310;DHT22;27057;51.438;-0.010;2023-04-03T12:01:56;15.00;99.90
41310;DHT22;27057;51.438;-0.010;2023-04-03T12:04:29;15.50;99.90
41310;DHT22;27057;51.438;-0.010;2023-04-03T12:07:26;15.60;99.90
41310;DHT22;27057;51.438;-0.010;2023-04-03T12:09:57;15.90;99.90
41310;DHT22;27057;51.438;-0.010;2023-04-03T12:12:33;15.70;99.90
41310;DHT22;27057;51.438;-0.010;2023-04-03T12:15:24;15.80;99.90
41310;DHT22;27057;51.438;-0.010;2023-04-03T12:17:52;15.60;99.90
41310;DHT22;27057;51.438;-0.010;2023-04-03T12:20:52;15.70;99.90
41310;DHT22;27057;51.438;-0.010;2023-04-03T12:26:05;15.90;99.90
41310;DHT22;27057;51.438;-0.010;2023-04-03T12:28:39;16.10;99.90
41310;DHT22;27057;51.438;-0.010;2023-04-03T12:31:10;16.10;99.90
41310;DHT22;27057;51.438;-0.010;2023-04-03T12:36:47;16.50;99.90
41310;DHT22;27057;51.438;-0.010;2023-04-03T12:39:48;16.40;99.90
41310;DHT22;27057;51.438;-0.010;2023-04-03T12:42:42;16.40;99.80
41310;DHT22;27057;51.438;-0.010;2023-04-03T12:45:22;16.60;99.50
41310;DHT22;27057;51.438;-0.010;2023-04-03T12:47:52;17.00;99.90
41310;DHT22;27057;51.438;-0.010;2023-04-03T12:50:22;17.20;99.10
41310;DHT22;27057;51.438;-0.010;2023-04-03T12:53:01;17.30;97.10
41310;DHT22;27057;51.438;-0.010;2023-04-03T12:55:31;17.20;97.10
41310;DHT22;27057;51.438;-0.010;2023-04-03T12:58:14;17.30;97.20
41310;DHT22;27057;51.438;-0.010;2023-04-03T13:00:43;17.60;97.20
41310;DHT22;27057;51.438;-0.010;2023-04-03T13:03:25;17.60;98.10
41310;DHT22;27057;51.438;-0.010;2023-04-03T13:05:59;17.80;97.60
41310;DHT22;27057;51.438;-0.010;2023-04-03T13:08:27;18.00;96.00
41310;DHT22;27057;51.438;-0.010;2023-04-03T13:11:01;18.20;97.90
41310;DHT22;27057;51.438;-0.010;2023-04-03T13:13:30;18.00;95.50
41310;DHT22;27057;51.438;-0.010;2023-04-03T13:15:58;18.10;95.20
41310;DHT22;27057;51.438;-0.010;2023-04-03T13:18:34;18.20;95.90
41310;DHT22;27057;51.438;-0.010;2023-04-03T13:21:15;18.30;95.50
41310;DHT22;27057;51.438;-0.010;2023-04-03T13:23:46;18.00;99.90
41310;DHT22;27057;51.438;-0.010;2023-04-03T13:26:21;18.00;94.90
41310;DHT22;27057;51.438;-0.010;2023-04-03T13:28:49;18.10;96.60
41310;DHT22;27057;51.438;-0.010;2023-04-03T13:31:25;18.50;95.40
41310;DHT22;27057;51.438;-0.010;2023-04-03T13:36:41;18.60;93.70
41310;DHT22;27057;51.438;-0.010;2023-04-03T13:41:45;18.50;93.40
41310;DHT22;27057;51.438;-0.010;2023-04-03T13:47:37;19.10;94.10
41310;DHT22;27057;51.438;-0.010;2023-04-03T13:49:44;18.80;94.80
41310;DHT22;27057;51.438;-0.010;2023-04-03T13:52:29;18.50;94.20
41310;DHT22;27057;51.438;-0.010;2023-04-03T13:55:01;19.10;93.30
41310;DHT22;27057;51.438;-0.010;2023-04-03T13:57:31;19.30;94.30
41310;DHT22;27057;51.438;-0.010;2023-04-03T13:59:59;18.80;92.30
41310;DHT22;27057;51.438;-0.010;2023-04-03T14:02:33;19.20;94.10
41310;DHT22;27057;51.438;-0.010;2023-04-03T14:05:02;19.60;93.80
41310;DHT22;27057;51.438;-0.010;2023-04-03T14:07:31;19.50;92.70
41310;DHT22;27057;51.438;-0.010;2023-04-03T14:09:58;19.90;99.90
41310;DHT22;27057;51.438;-0.010;2023-04-03T14:12:31;19.80;91.70
41310;DHT22;27057;51.438;-0.010;2023-04-03T14:15:01;19.70;90.40
41310;DHT22;27057;51.438;-0.010;2023-04-03T14:17:29;20.00;90.80
41310;DHT22;27057;51.438;-0.010;2023-04-03T14:19:58;20.00;88.20
41310;DHT22;27057;51.438;-0.010;2023-04-03T14:22:29;20.30;90.90
41310;DHT22;27057;51.438;-0.010;2023-04-03T14:24:58;20.30;87.00
41310;DHT22;27057;51.438;-0.010;2023-04-03T14:27:34;20.60;91.30
41310;DHT22;27057;51.438;-0.010;2023-04-03T14:30:03;20.90;90.20
41310;DHT22;27057;51.438;-0.010;2023-04-03T14:32:32;20.70;86.90
41310;DHT22;27057;51.438;-0.010;2023-04-03T14:35:00;20.00;83.10
41310;DHT22;27057;51.438;-0.010;2023-04-03T14:37:30;20.10;86.50
41310;DHT22;27057;51.438;-0.010;2023-04-03T14:39:59;20.10;86.60
41310;DHT22;27057;51.438;-0.010;2023-04-03T14:42:33;20.00;85.60
41310;DHT22;27057;51.438;-0.010;2023-04-03T14:45:05;20.50;83.80
41310;DHT22;27057;51.438;-0.010;2023-04-03T14:47:34;20.40;84.40
41310;DHT22;27057;51.438;-0.010;2023-04-03T14:50:06;20.20;82.10
41310;DHT22;27057;51.438;-0.010;2023-04-03T14:52:35;20.30;84.60
41310;DHT22;27057;51.438;-0.010;2023-04-03T14:55:06;20.60;83.30
41310;DHT22;27057;51.438;-0.010;2023-04-03T14:57:34;20.50;85.20
41310;DHT22;27057;51.438;-0.010;2023-04-03T15:00:03;20.70;83.30
41310;DHT22;27057;51.438;-0.010;2023-04-03T15:02:34;20.20;82.70
41310;DHT22;27057;51.438;-0.010;2023-04-03T15:05:04;20.70;87.20
41310;DHT22;27057;51.438;-0.010;2023-04-03T15:07:45;20.40;85.80
41310;DHT22;27057;51.438;-0.010;2023-04-03T15:12:50;20.80;83.70
41310;DHT22;27057;51.438;-0.010;2023-04-03T15:15:20;20.70;80.90
41310;DHT22;27057;51.438;-0.010;2023-04-03T15:17:52;20.70;84.40
41310;DHT22;27057;51.438;-0.010;2023-04-03T15:20:24;20.20;84.20
41310;DHT22;27057;51.438;-0.010;2023-04-03T15:22:53;20.20;83.30
41310;DHT22;27057;51.438;-0.010;2023-04-03T15:25:21;20.30;83.10
41310;DHT22;27057;51.438;-0.010;2023-04-03T15:27:49;20.20;81.90
41310;DHT22;27057;51.438;-0.010;2023-04-03T15:30:18;20.40;81.00
41310;DHT22;27057;51.438;-0.010;2023-04-03T15:32:46;20.40;81.10
41310;DHT22;27057;51.438;-0.010;2023-04-03T15:35:13;20.90;83.20
41310;DHT22;27057;51.438;-0.010;2023-04-03T15:37:41;20.60;85.60
41310;DHT22;27057;51.438;-0.010;2023-04-03T15:40:09;20.90;85.20
41310;DHT22;27057;51.438;-0.010;2023-04-03T15:42:37;20.90;86.60
41310;DHT22;27057;51.438;-0.010;2023-04-03T15:45:06;20.20;85.30
41310;DHT22;27057;51.438;-0.010;2023-04-03T15:47:34;20.30;85.70
41310;DHT22;27057;51.438;-0.010;2023-04-03T15:50:02;20.70;88.50
41310;DHT22;27057;51.438;-0.010;2023-04-03T15:52:33;20.60;87.50
41310;DHT22;27057;51.438;-0.010;2023-04-03T15:55:02;21.00;90.00
41310;DHT22;27057;51.438;-0.010;2023-04-03T15:57:30;21.10;88.10
41310;DHT22;27057;51.438;-0.010;2023-04-03T15:59:57;21.20;88.90
41310;DHT22;27057;51.438;-0.010;2023-04-03T16:02:25;21.10;89.90
41310;DHT22;27057;51.438;-0.010;2023-04-03T16:04:55;20.90;87.50
41310;DHT22;27057;51.438;-0.010;2023-04-03T16:07:22;20.70;86.60
41310;DHT22;27057;51.438;-0.010;2023-04-03T16:09:50;20.40;86.40
41310;DHT22;27057;51.438;-0.010;2023-04-03T16:12:17;20.60;85.10
41310;DHT22;27057;51.438;-0.010;2023-04-03T16:14:44;20.90;86.70
41310;DHT22;27057;51.438;-0.010;2023-04-03T16:17:12;20.40;81.40
41310;DHT22;27057;51.438;-0.010;2023-04-03T16:19:39;19.80;80.10
41310;DHT22;27057;51.438;-0.010;2023-04-03T16:22:07;20.00;93.40
41310;DHT22;27057;51.438;-0.010;2023-04-03T16:24:34;19.70;75.90
41310;DHT22;27057;51.438;-0.010;2023-04-03T16:27:02;19.50;75.90
41310;DHT22;27057;51.438;-0.010;2023-04-03T16:29:30;19.40;75.50
41310;DHT22;27057;51.438;-0.010;2023-04-03T16:31:58;19.30;77.30
41310;DHT22;27057;51.438;-0.010;2023-04-03T16:34:26;19.70;79.30
41310;DHT22;27057;51.438;-0.010;2023-04-03T16:36:54;19.50;79.20
41310;DHT22;27057;51.438;-0.010;2023-04-03T16:39:21;19.90;77.40
41310;DHT22;27057;51.438;-0.010;2023-04-03T16:41:48;20.40;80.00
41310;DHT22;27057;51.438;-0.010;2023-04-03T16:44:16;20.50;76.20
41310;DHT22;27057;51.438;-0.010;2023-04-03T16:46:43;20.70;77.60
41310;DHT22;27057;51.438;-0.010;2023-04-03T16:49:14;20.60;78.00
41310;DHT22;27057;51.438;-0.010;2023-04-03T16:51:41;20.60;77.60
41310;DHT22;27057;51.438;-0.010;2023-04-03T16:54:08;20.00;78.00
41310;DHT22;27057;51.438;-0.010;2023-04-03T16:56:37;20.60;75.30
41310;DHT22;27057;51.438;-0.010;2023-04-03T16:59:05;20.00;76.40
41310;DHT22;27057;51.438;-0.010;2023-04-03T17:01:33;20.10;76.30
41310;DHT22;27057;51.438;-0.010;2023-04-03T17:04:00;19.40;78.80
41310;DHT22;27057;51.438;-0.010;2023-04-03T17:06:27;20.00;79.70
41310;DHT22;27057;51.438;-0.010;2023-04-03T17:08:55;19.80;94.50
41310;DHT22;27057;51.438;-0.010;2023-04-03T17:11:29;19.70;78.30
41310;DHT22;27057;51.438;-0.010;2023-04-03T17:13:57;19.80;79.10
41310;DHT22;27057;51.438;-0.010;2023-04-03T17:16:25;19.60;80.00
41310;DHT22;27057;51.438;-0.010;2023-04-03T17:18:53;20.00;80.90
41310;DHT22;27057;51.438;-0.010;2023-04-03T17:21:21;19.40;79.50
41310;DHT22;27057;51.438;-0.010;2023-04-03T17:23:59;19.80;81.10
41310;DHT22;27057;51.438;-0.010;2023-04-03T17:26:27;19.60;80.50
41310;DHT22;27057;51.438;-0.010;2023-04-03T17:28:55;19.70;81.80
41310;DHT22;27057;51.438;-0.010;2023-04-03T17:31:23;19.10;80.70
41310;DHT22;27057;51.438;-0.010;2023-04-03T17:33:51;19.00;82.20
41310;DHT22;27057;51.438;-0.010;2023-04-03T17:36:18;19.00;82.60
41310;DHT22;27057;51.438;-0.010;2023-04-03T17:38:45;18.70;84.30
41310;DHT22;27057;51.438;-0.010;2023-04-03T17:41:15;18.10;83.00
41310;DHT22;27057;51.438;-0.010;2023-04-03T17:43:42;18.30;86.00
41310;DHT22;27057;51.438;-0.010;2023-04-03T17:46:10;18.20;85.60
41310;DHT22;27057;51.438;-0.010;2023-04-03T17:48:39;18.80;86.80
41310;DHT22;27057;51.438;-0.010;2023-04-03T17:51:12;18.70;85.00
41310;DHT22;27057;51.438;-0.010;2023-04-03T17:53:41;18.40;87.20
41310;DHT22;27057;51.438;-0.010;2023-04-03T17:56:14;19.20;88.10
41310;DHT22;27057;51.438;-0.010;2023-04-03T17:58:43;17.70;99.40
41310;DHT22;27057;51.438;-0.010;2023-04-03T18:01:22;17.60;89.70
41310;DHT22;27057;51.438;-0.010;2023-04-03T18:03:53;17.30;99.90
41310;DHT22;27057;51.438;-0.010;2023-04-03T18:06:25;16.80;89.00
41310;DHT22;27057;51.438;-0.010;2023-04-03T18:09:20;16.70;90.20
41310;DHT22;27057;51.438;-0.010;2023-04-03T18:11:50;16.50;90.10
41310;DHT22;27057;51.438;-0.010;2023-04-03T18:14:24;15.90;99.90
41310;DHT22;27057;51.438;-0.010;2023-04-03T18:16:53;15.60;91.10
41310;DHT22;27057;51.438;-0.010;2023-04-03T18:19:24;14.70;90.90
41310;DHT22;27057;51.438;-0.010;2023-04-03T18:24:52;14.00;92.30
41310;DHT22;27057;51.438;-0.010;2023-04-03T18:27:21;13.50;93.40